Impacts TAF Board INFO
FOR SITUATIONAL AWARENESS. NOT TO BE USED FOR FLIGHT PLANNING PURPOSES.
IDs:

KIAH - Houston/Bush Intl, TX, US

Issued at 1137 UTC 23 Jan 2018
Updated at 1359 UTC 23 Jan 2018
Potential Impact None Slight Moderate High
Time<<24/14Z 24/15Z 24/16Z 24/17Z 24/18Z 24/19Z 24/20Z 24/21Z 24/22Z 24/23Z 25/00Z 25/01Z 25/02Z
Type PRVL PRVL PRVL PRVL
VIS >6 >6 >6 >6
CIG -- -- -- --
Cover SKC SCT SCT SCT
FltCat VFR VFR VFR VFR
WX -- -- -- --
WDir VRB 40 40 40
WSpd 0 6 6 6
WGst -- -- -- --

Raw TAF
KIAH 231137Z 2312/2418 VRB03KT P6SM SCT250
  FM231500 34007KT P6SM SCT250
  FM240200 00000KT P6SM SKC
  FM241500 04006KT P6SM SCT250


METAR Board
Radar Display
Forecast Discussion

FOR SITUATIONAL AWARENESS. NOT TO BE USED FOR FLIGHT PLANNING PURPOSES.